ASN logo
Last updated: 16 January 2022
Status:Voorlopig - officieel
Datum:vrijdag 7 juni 2013
Tijd:17:25
Type:Silhouette image of generic E145 model; specific model in this crash may look slightly different
Embraer EMB-145LI (ERJ-145LI)
Luchtvaartmaatschappij:China Eastern Airlines
Registratie: B-3052
Constructienummer: 14500905
Bouwjaar: 2006
Motoren: 2 Allison AE3007A1/1
Bemanning:slachtoffers: 0 / inzittenden: 5
Passagiers:slachtoffers: 0 / inzittenden: 44
Totaal:slachtoffers: 0 / inzittenden: 49
Schade: Groot
Plaats:Shanghai-Hongqiao Airport (SHA) (   China)
Fase: Landing (LDG)
Soort vlucht:Binnenlandse lijnvlucht
Vliegveld van vertrek:Huai'an-Lianshui Airport (HIA/ZSSH), China
Vliegveld van aankomst:Shanghai-Hongqiao Airport (SHA/ZSSS), China
Vluchtnummer:MU2947
Beschrijving:
An Embraer ERJ-145LI passenger jet suffered substantial damage in a landing accident at Shanghai-Hongqiao Airport (SHA), China.
The aircraft, flight MU2947, departed the left side of runway 18L onto taxiway A2 while landing at Hongqiao International Airport in moderate rain. The 5 crewmembers and 44 passengers were uninjured, and the nose landing gear sustained minor damage.
After this incident, the nosewheel steering manifold assembly and electrohydraulic servo valve (EHSV) were tested by the components’ manufacturers according to their returned component acceptance test protocols, which are the same tests that newly manufactured components would undergo before delivery. After both components passed their respective acceptance tests, they were removed and disassembled; foreign object debris (FOD) was discovered inside the EHSV housing in an area where it could block a hydraulic port, subsequently leading to an uncommanded left nosewheel turn.

Bronnen:
» 163.com

METAR Weather report:
09:00 UTC / 17:00 local time:
ZSSS 070900Z 11009G15MPS 2500 SHRA BR BKN009 OVC040 21/20 Q1000 BECMG TL1030 3000 -SHRA

09:30 UTC / 17:30 local time:
ZSSS 070930Z 11008G13MPS 070V140 7000 -SHRA BKN009 OVC040 21/19 Q1000 RESHRA NOSIG
Wind 110 degrees at 16 knots, gusting to 25 knots, direction varying between 070 and 140 degrees, Visibility: 7000 m; light rain showers; broken clouds at 900 feet AGL; overcast cloud deck at 4000 feet AGL; Temperature: 21°C, Dewpoint: 19°C; Pressure: 1000 mb, recent moderate/heavy rain showers.


Veiligheidsmaatregelen

NTSB issued 5 Safety Recommendations

Show all...

Foto's

Add your photo of this accident or aircraft

Kaart
Deze kaart geeft het vliegveld van vetrek weer en de geplande bestemming van de vlucht. De lijn tussen de vliegvelden geeft niet de exacte vliegroute weer.
De afstand tussen Huai'an-Lianshui Airport en Shanghai-Hongqiao Airport bedraagt 350 km (219 miles).

This information is not presented as the Flight Safety Foundation or the Aviation Safety Network’s opinion as to the cause of the accident. It is preliminary and is based on the facts as they are known at this time.
languages: languages

Share